createdAt,value
2024-03-09T00:00:41.802Z,99.90
2024-03-09T00:03:11.333Z,99.90
2024-03-09T00:05:41.323Z,99.90
2024-03-09T00:08:12.948Z,99.90
2024-03-09T00:10:41.086Z,99.90
2024-03-09T00:13:11.684Z,99.90
2024-03-09T00:15:40.751Z,99.90
2024-03-09T00:18:09.182Z,99.90
2024-03-09T00:20:37.171Z,99.90
2024-03-09T00:23:08.819Z,99.90
2024-03-09T00:25:38.420Z,99.90
2024-03-09T00:28:07.495Z,99.90
2024-03-09T00:30:36.444Z,99.90
2024-03-09T00:33:07.047Z,99.90
2024-03-09T00:35:36.077Z,99.90
2024-03-09T00:38:06.786Z,99.90
2024-03-09T00:40:36.639Z,99.90
2024-03-09T00:43:06.928Z,99.90
2024-03-09T00:45:35.460Z,99.90
2024-03-09T00:48:05.055Z,99.90
2024-03-09T00:50:36.873Z,99.90
2024-03-09T00:53:04.990Z,99.90
2024-03-09T00:55:33.055Z,99.90
2024-03-09T00:58:02.620Z,99.90
2024-03-09T01:00:30.535Z,99.90
2024-03-09T01:02:58.430Z,99.90
2024-03-09T01:05:27.996Z,99.90
2024-03-09T01:07:57.405Z,99.90
2024-03-09T01:10:25.438Z,99.90
2024-03-09T01:12:53.316Z,99.90
2024-03-09T01:15:22.893Z,99.90
2024-03-09T01:17:50.859Z,99.90
2024-03-09T01:20:19.161Z,99.90
2024-03-09T01:22:47.310Z,99.90
2024-03-09T01:25:16.197Z,99.90
2024-03-09T01:27:45.261Z,99.90
2024-03-09T01:30:13.475Z,99.90
2024-03-09T01:32:45.075Z,99.90
2024-03-09T01:35:14.507Z,99.90
2024-03-09T01:37:43.176Z,99.90
2024-03-09T01:40:12.393Z,99.90
2024-03-09T01:42:40.456Z,99.90
2024-03-09T01:45:09.139Z,99.90
2024-03-09T01:47:38.670Z,99.90
2024-03-09T01:50:11.710Z,99.90
2024-03-09T01:52:41.032Z,99.90
2024-03-09T01:55:11.123Z,99.90
2024-03-09T01:57:39.704Z,99.90
2024-03-09T02:00:10.879Z,99.90
2024-03-09T02:02:39.807Z,99.90
2024-03-09T02:05:13.027Z,99.90
2024-03-09T02:07:41.844Z,99.90
2024-03-09T02:10:12.714Z,99.90
2024-03-09T02:12:40.808Z,99.90
2024-03-09T02:15:13.114Z,99.90
2024-03-09T02:17:41.354Z,99.90
2024-03-09T02:20:13.062Z,99.90
2024-03-09T02:22:42.926Z,99.90
2024-03-09T02:25:12.455Z,99.90
2024-03-09T02:27:44.069Z,99.90
2024-03-09T02:30:13.161Z,99.90
2024-03-09T02:32:43.631Z,99.90
2024-03-09T02:35:11.991Z,99.90
2024-03-09T02:37:40.446Z,99.90
2024-03-09T02:40:13.006Z,99.90
2024-03-09T02:43:03.202Z,99.90
2024-03-09T02:45:31.219Z,99.90
2024-03-09T02:47:59.497Z,99.90
2024-03-09T02:50:28.372Z,99.90
2024-03-09T02:52:56.769Z,99.90
2024-03-09T02:55:28.013Z,99.90
2024-03-09T02:57:57.783Z,99.90
2024-03-09T03:00:28.048Z,99.90
2024-03-09T03:03:14.004Z,99.90
2024-03-09T03:05:43.777Z,99.90
2024-03-09T03:08:12.906Z,99.90
2024-03-09T03:10:41.892Z,99.90
2024-03-09T03:13:11.497Z,99.90
2024-03-09T03:15:40.092Z,99.90
2024-03-09T03:18:09.360Z,99.90
2024-03-09T03:20:37.473Z,99.90
2024-03-09T03:23:06.400Z,99.90
2024-03-09T03:25:35.940Z,99.90
2024-03-09T03:28:05.283Z,99.90
2024-03-09T03:30:38.031Z,99.90
2024-03-09T03:33:07.089Z,99.90
2024-03-09T03:35:35.310Z,99.90
2024-03-09T03:38:03.692Z,99.90
2024-03-09T03:40:32.328Z,99.90
2024-03-09T03:43:00.288Z,99.90
2024-03-09T03:45:28.183Z,99.90
2024-03-09T03:47:57.699Z,99.90
2024-03-09T03:50:25.624Z,99.90
2024-03-09T03:52:53.534Z,99.90
2024-03-09T03:55:21.583Z,99.90
2024-03-09T03:57:52.339Z,99.90
2024-03-09T04:00:22.211Z,99.90
2024-03-09T04:02:50.147Z,99.90
2024-03-09T04:05:19.509Z,99.90
2024-03-09T04:07:47.437Z,99.90
2024-03-09T04:10:19.739Z,99.90
2024-03-09T04:12:47.698Z,99.90
2024-03-09T04:15:15.988Z,99.90
2024-03-09T04:17:44.465Z,99.90
2024-03-09T04:20:17.200Z,99.90
2024-03-09T04:22:51.505Z,99.90
2024-03-09T04:25:20.636Z,99.90
2024-03-09T04:27:51.474Z,99.90
2024-03-09T04:30:19.417Z,99.90
2024-03-09T04:32:47.396Z,99.90
2024-03-09T04:35:15.701Z,99.90
2024-03-09T04:37:43.711Z,99.90
2024-03-09T04:40:17.289Z,99.90
2024-03-09T04:42:47.492Z,99.90
2024-03-09T04:45:15.859Z,99.90
2024-03-09T04:47:44.310Z,99.90
2024-03-09T04:50:12.400Z,99.90
2024-03-09T04:52:40.388Z,99.90
2024-03-09T04:55:10.912Z,99.90
2024-03-09T04:57:44.339Z,99.90
2024-03-09T05:00:15.799Z,99.90
2024-03-09T05:02:48.197Z,99.90
2024-03-09T05:05:18.271Z,99.90
2024-03-09T05:07:47.848Z,99.90
2024-03-09T05:10:18.775Z,99.90
2024-03-09T05:12:54.404Z,99.90
2024-03-09T05:15:22.992Z,99.90
2024-03-09T05:17:51.264Z,99.90
2024-03-09T05:20:23.811Z,99.90
2024-03-09T05:22:52.168Z,99.90
2024-03-09T05:25:22.529Z,99.90
2024-03-09T05:27:52.950Z,99.90
2024-03-09T05:30:26.424Z,99.90
2024-03-09T05:32:55.857Z,99.90
2024-03-09T05:35:24.688Z,99.90
2024-03-09T05:37:52.621Z,99.90
2024-03-09T05:40:21.428Z,99.90
2024-03-09T05:42:51.569Z,99.90
2024-03-09T05:45:22.286Z,99.90
2024-03-09T05:47:51.395Z,99.90
2024-03-09T05:50:19.733Z,99.90
2024-03-09T05:52:53.237Z,99.90
2024-03-09T05:55:21.931Z,99.90
2024-03-09T05:57:52.022Z,99.90
2024-03-09T06:00:21.346Z,99.90
2024-03-09T06:02:49.390Z,99.90
2024-03-09T06:05:17.635Z,99.90
2024-03-09T06:07:46.792Z,99.90
2024-03-09T06:10:18.093Z,99.90
2024-03-09T06:12:48.144Z,99.90
2024-03-09T06:15:20.463Z,99.90
2024-03-09T06:17:49.796Z,99.90
2024-03-09T06:20:19.266Z,99.90
2024-03-09T06:22:48.396Z,99.90
2024-03-09T06:25:24.110Z,99.90
2024-03-09T06:27:54.801Z,99.90
2024-03-09T06:30:29.266Z,99.90
2024-03-09T06:33:01.236Z,99.90
2024-03-09T06:35:30.702Z,99.90
2024-03-09T06:38:00.622Z,99.90
2024-03-09T06:40:29.288Z,99.90
2024-03-09T06:43:04.419Z,99.90
2024-03-09T06:45:34.940Z,99.90
2024-03-09T06:48:04.698Z,99.90
2024-03-09T06:50:34.024Z,99.90
2024-03-09T06:53:02.345Z,99.90
2024-03-09T06:55:31.319Z,99.90
2024-03-09T06:58:03.372Z,99.90
2024-03-09T07:00:36.939Z,99.90
2024-03-09T07:03:06.647Z,99.90
2024-03-09T07:05:36.434Z,99.90
2024-03-09T07:08:06.766Z,99.90
2024-03-09T07:10:36.170Z,99.90
2024-03-09T07:13:05.664Z,99.90
2024-03-09T07:15:35.699Z,99.90
2024-03-09T07:18:04.249Z,99.90
2024-03-09T07:20:34.499Z,99.90
2024-03-09T07:23:02.491Z,99.90
2024-03-09T07:25:31.849Z,99.90
2024-03-09T07:28:01.229Z,99.90
2024-03-09T07:30:29.701Z,99.90
2024-03-09T07:32:59.202Z,99.90
2024-03-09T07:35:30.122Z,99.90
2024-03-09T07:38:00.644Z,99.90
2024-03-09T07:40:31.589Z,99.90
2024-03-09T07:43:00.024Z,99.90
2024-03-09T07:45:29.323Z,99.90
2024-03-09T07:48:00.165Z,99.90
2024-03-09T07:50:29.165Z,99.90
2024-03-09T07:52:58.957Z,99.90
2024-03-09T07:55:28.696Z,99.90
2024-03-09T07:58:09.243Z,99.90
2024-03-09T08:00:46.253Z,99.90
2024-03-09T08:03:16.025Z,99.90
2024-03-09T08:05:44.912Z,99.90
2024-03-09T08:08:13.852Z,99.90
2024-03-09T08:10:47.989Z,99.90
2024-03-09T08:13:17.942Z,99.90
2024-03-09T08:15:45.887Z,99.90
2024-03-09T08:18:15.308Z,99.90
2024-03-09T08:20:43.692Z,99.90
2024-03-09T08:23:12.731Z,99.90
2024-03-09T08:25:41.080Z,99.90
2024-03-09T08:28:09.676Z,99.90
2024-03-09T08:30:37.676Z,99.90
2024-03-09T08:33:06.115Z,99.90
2024-03-09T08:35:35.539Z,99.90
2024-03-09T08:38:03.644Z,99.90
2024-03-09T08:40:32.880Z,99.90
2024-03-09T08:43:00.968Z,99.90
2024-03-09T08:45:28.588Z,99.90
2024-03-09T08:47:56.747Z,99.90
2024-03-09T08:50:26.309Z,99.90
2024-03-09T08:52:56.602Z,99.90
2024-03-09T08:55:25.138Z,99.90
2024-03-09T08:57:53.394Z,99.90
2024-03-09T09:00:25.506Z,99.90
2024-03-09T09:02:55.024Z,99.90
2024-03-09T09:05:22.986Z,99.90
2024-03-09T09:07:54.804Z,99.90
2024-03-09T09:10:26.447Z,99.90
2024-03-09T09:12:55.368Z,99.90
2024-03-09T09:15:24.337Z,99.90
2024-03-09T09:17:52.307Z,99.90
2024-03-09T09:20:21.126Z,99.90
2024-03-09T09:22:50.632Z,99.90
2024-03-09T09:25:27.394Z,99.90
2024-03-09T09:28:00.826Z,99.90
2024-03-09T09:30:28.801Z,99.90
2024-03-09T09:32:58.348Z,99.90
2024-03-09T09:35:26.830Z,99.90
2024-03-09T09:37:55.120Z,99.90
2024-03-09T09:40:23.156Z,99.90
2024-03-09T09:42:51.317Z,99.90
2024-03-09T09:45:23.533Z,99.90
2024-03-09T09:47:51.761Z,99.90
2024-03-09T09:50:20.781Z,99.90
2024-03-09T09:52:50.532Z,99.30
2024-03-09T09:55:20.774Z,95.80
2024-03-09T09:57:49.048Z,92.80
2024-03-09T10:00:18.825Z,90.30
2024-03-09T10:02:51.773Z,85.90
2024-03-09T10:05:20.158Z,83.50
2024-03-09T10:08:02.706Z,81.90
2024-03-09T10:10:32.580Z,81.40
2024-03-09T10:13:11.877Z,78.00
2024-03-09T10:15:42.083Z,74.10
2024-03-09T10:18:12.180Z,70.50
2024-03-09T10:20:41.368Z,70.40
2024-03-09T10:23:13.151Z,67.80
2024-03-09T10:25:41.997Z,66.50
2024-03-09T10:28:11.494Z,64.70
2024-03-09T10:30:40.369Z,64.00
2024-03-09T10:33:16.203Z,63.40
2024-03-09T10:35:47.639Z,61.20
2024-03-09T10:38:18.898Z,58.10
2024-03-09T10:40:47.138Z,56.10
2024-03-09T10:43:16.674Z,54.60
2024-03-09T10:45:52.017Z,53.90
2024-03-09T10:48:22.744Z,53.50
2024-03-09T10:51:00.432Z,53.70
2024-03-09T10:53:38.775Z,53.60
2024-03-09T10:56:16.481Z,53.20
2024-03-09T10:58:46.203Z,52.40
2024-03-09T11:01:18.273Z,52.50
2024-03-09T11:03:51.440Z,52.50
2024-03-09T11:06:20.266Z,51.40
2024-03-09T11:08:50.629Z,52.40
2024-03-09T11:11:21.049Z,52.00
2024-03-09T11:13:49.935Z,51.30
2024-03-09T11:16:21.226Z,50.70
2024-03-09T11:18:56.798Z,50.80
2024-03-09T11:21:28.297Z,50.80
2024-03-09T11:24:00.775Z,50.10
2024-03-09T11:26:29.002Z,50.50
2024-03-09T11:28:57.985Z,51.30
2024-03-09T11:31:30.323Z,51.90
2024-03-09T11:34:15.375Z,52.40
2024-03-09T11:36:51.181Z,52.60
2024-03-09T11:39:23.067Z,52.70
2024-03-09T11:41:52.636Z,51.90
2024-03-09T11:44:23.004Z,52.10
2024-03-09T11:46:51.778Z,52.90
2024-03-09T11:49:21.703Z,53.10
2024-03-09T11:51:52.208Z,52.70
2024-03-09T11:54:21.854Z,52.70
2024-03-09T11:56:49.756Z,53.40
2024-03-09T11:59:17.822Z,53.40
2024-03-09T12:01:50.197Z,53.50
2024-03-09T12:04:20.085Z,53.50
2024-03-09T12:06:47.938Z,53.60
2024-03-09T12:09:17.015Z,53.60
2024-03-09T12:11:47.699Z,53.40
2024-03-09T12:14:17.393Z,53.50
2024-03-09T12:16:49.666Z,54.10
2024-03-09T12:19:20.376Z,54.00
2024-03-09T12:21:48.565Z,54.40
2024-03-09T12:24:16.703Z,55.00
2024-03-09T12:26:45.095Z,55.30
2024-03-09T12:29:14.732Z,55.20
2024-03-09T12:31:45.313Z,55.50
2024-03-09T12:34:13.584Z,56.20
2024-03-09T12:36:52.971Z,56.80
2024-03-09T12:39:21.336Z,56.60
2024-03-09T12:41:54.474Z,56.70
2024-03-09T12:44:23.748Z,56.50
2024-03-09T12:46:52.013Z,56.50
2024-03-09T12:49:21.256Z,56.60
2024-03-09T12:51:51.365Z,56.40
2024-03-09T12:54:24.909Z,56.10
2024-03-09T12:56:54.794Z,55.80
2024-03-09T12:59:27.402Z,56.20
2024-03-09T13:01:57.543Z,56.10
2024-03-09T13:04:27.691Z,55.70
2024-03-09T13:06:58.648Z,55.50
2024-03-09T13:09:33.661Z,55.00
2024-03-09T13:12:03.423Z,54.90
2024-03-09T13:14:34.677Z,55.10
2024-03-09T13:17:02.812Z,55.10
2024-03-09T13:19:30.928Z,54.40
2024-03-09T13:22:01.351Z,54.60
2024-03-09T13:24:32.059Z,54.70
2024-03-09T13:27:00.105Z,54.60
2024-03-09T13:29:31.135Z,54.50
2024-03-09T13:32:00.267Z,54.00
2024-03-09T13:34:31.163Z,53.80
2024-03-09T13:37:00.007Z,53.90
2024-03-09T13:39:35.646Z,53.90
2024-03-09T13:42:10.536Z,52.80
2024-03-09T13:44:39.351Z,52.30
2024-03-09T13:47:10.545Z,51.40
2024-03-09T13:49:40.327Z,51.40
2024-03-09T13:52:10.831Z,50.20
2024-03-09T13:54:38.894Z,48.90
2024-03-09T13:57:08.917Z,48.60
2024-03-09T13:59:37.331Z,48.20
2024-03-09T14:02:09.396Z,48.20
2024-03-09T14:04:37.586Z,48.00
2024-03-09T14:07:09.241Z,47.80
2024-03-09T14:09:46.656Z,47.70
2024-03-09T14:12:20.834Z,47.70
2024-03-09T14:14:53.715Z,47.50
2024-03-09T14:17:22.900Z,46.40
2024-03-09T14:19:52.281Z,46.70
2024-03-09T14:22:26.247Z,46.20
2024-03-09T14:24:57.465Z,45.40
2024-03-09T14:27:26.745Z,45.00
2024-03-09T14:29:55.283Z,44.30
2024-03-09T14:32:23.839Z,43.80
2024-03-09T14:34:52.224Z,43.20
2024-03-09T14:37:20.170Z,42.80
2024-03-09T14:39:48.072Z,42.60
2024-03-09T14:42:18.797Z,42.90
2024-03-09T14:44:48.437Z,42.90
2024-03-09T14:47:16.460Z,41.90
2024-03-09T14:49:45.282Z,41.90
2024-03-09T14:52:14.186Z,42.00
2024-03-09T14:54:42.728Z,41.90
2024-03-09T14:57:10.915Z,41.40
2024-03-09T14:59:38.921Z,41.50
2024-03-09T15:02:08.004Z,41.70
2024-03-09T15:04:36.112Z,41.40
2024-03-09T15:07:06.942Z,42.10
2024-03-09T15:09:35.433Z,42.50
2024-03-09T15:12:08.878Z,42.80
2024-03-09T15:14:36.928Z,42.30
2024-03-09T15:17:10.446Z,42.60
2024-03-09T15:19:40.014Z,43.50
2024-03-09T15:22:07.963Z,42.60
2024-03-09T15:24:35.986Z,43.00
2024-03-09T15:27:04.217Z,43.40
2024-03-09T15:29:32.701Z,43.50
2024-03-09T15:32:04.226Z,44.10
2024-03-09T15:34:32.200Z,44.60
2024-03-09T15:37:01.439Z,44.70
2024-03-09T15:39:29.406Z,44.90
2024-03-09T15:41:59.282Z,45.00
2024-03-09T15:44:28.711Z,45.30
2024-03-09T15:46:56.728Z,45.70
2024-03-09T15:49:24.709Z,46.10
2024-03-09T15:51:55.017Z,46.20
2024-03-09T15:54:25.718Z,46.40
2024-03-09T15:56:53.837Z,46.90
2024-03-09T15:59:22.558Z,47.20
2024-03-09T16:01:52.892Z,47.70
2024-03-09T16:04:20.892Z,48.00
2024-03-09T16:06:48.835Z,48.40
2024-03-09T16:09:21.865Z,48.70
2024-03-09T16:11:51.550Z,48.90
2024-03-09T16:14:21.976Z,49.20
2024-03-09T16:16:51.201Z,49.40
2024-03-09T16:19:19.096Z,49.60
2024-03-09T16:21:47.073Z,49.90
2024-03-09T16:24:14.958Z,50.70
2024-03-09T16:26:42.902Z,50.20
2024-03-09T16:29:12.181Z,50.30
2024-03-09T16:31:40.201Z,50.20
2024-03-09T16:34:08.578Z,50.10
2024-03-09T16:36:37.693Z,50.20
2024-03-09T16:39:05.718Z,50.10
2024-03-09T16:41:33.964Z,50.40
2024-03-09T16:44:04.773Z,50.60
2024-03-09T16:46:34.136Z,50.80
2024-03-09T16:49:02.192Z,51.10
2024-03-09T16:51:30.430Z,51.30
2024-03-09T16:53:58.377Z,51.50
2024-03-09T16:56:29.739Z,51.70
2024-03-09T16:58:59.938Z,52.00
2024-03-09T17:01:32.072Z,52.30
2024-03-09T17:04:03.627Z,52.60
2024-03-09T17:06:33.828Z,52.90
2024-03-09T17:09:02.027Z,53.20
2024-03-09T17:11:32.052Z,53.50
2024-03-09T17:14:00.193Z,53.80
2024-03-09T17:16:28.912Z,54.00
2024-03-09T17:18:56.977Z,54.40
2024-03-09T17:21:26.224Z,54.70
2024-03-09T17:23:55.979Z,55.00
2024-03-09T17:26:24.053Z,55.30
2024-03-09T17:28:53.529Z,55.70
2024-03-09T17:31:22.436Z,56.40
2024-03-09T17:33:51.250Z,57.00
2024-03-09T17:36:19.794Z,57.40
2024-03-09T17:38:49.679Z,58.10
2024-03-09T17:41:18.450Z,58.60
2024-03-09T17:43:48.244Z,59.10
2024-03-09T17:46:17.289Z,59.70
2024-03-09T17:48:45.335Z,61.00
2024-03-09T17:51:16.882Z,60.90
2024-03-09T17:53:45.437Z,61.30
2024-03-09T17:56:16.399Z,61.60
2024-03-09T17:58:46.982Z,62.10
2024-03-09T18:01:15.161Z,62.60
2024-03-09T18:03:44.696Z,63.00
2024-03-09T18:06:13.279Z,63.50
2024-03-09T18:08:44.554Z,63.80
2024-03-09T18:11:16.370Z,64.10
2024-03-09T18:13:45.361Z,64.50
2024-03-09T18:16:16.798Z,65.00
2024-03-09T18:18:45.534Z,65.60
2024-03-09T18:21:13.460Z,66.20
2024-03-09T18:23:42.148Z,66.60
2024-03-09T18:26:10.195Z,67.00
2024-03-09T18:28:40.116Z,67.40
2024-03-09T18:31:09.208Z,67.70
2024-03-09T18:33:37.517Z,68.10
2024-03-09T18:36:06.456Z,68.50
2024-03-09T18:38:34.878Z,68.60
2024-03-09T18:41:05.949Z,68.70
2024-03-09T18:43:34.358Z,68.90
2024-03-09T18:46:03.757Z,69.00
2024-03-09T18:48:31.754Z,69.40
2024-03-09T18:50:59.816Z,69.50
2024-03-09T18:53:27.822Z,69.70
2024-03-09T18:55:55.813Z,69.70
2024-03-09T18:58:23.689Z,69.80
2024-03-09T19:00:52.063Z,69.90
2024-03-09T19:03:22.350Z,70.10
2024-03-09T19:05:50.985Z,70.30
2024-03-09T19:08:19.296Z,70.50
2024-03-09T19:10:47.422Z,70.50
2024-03-09T19:13:17.969Z,70.40
2024-03-09T19:15:45.957Z,70.40
2024-03-09T19:18:15.794Z,70.60
2024-03-09T19:20:46.743Z,70.70
2024-03-09T19:23:16.214Z,70.70
2024-03-09T19:25:48.976Z,70.80
2024-03-09T19:28:18.739Z,71.00
2024-03-09T19:30:47.038Z,71.10
2024-03-09T19:33:15.596Z,71.20
2024-03-09T19:35:45.221Z,71.40
2024-03-09T19:38:15.891Z,71.50
2024-03-09T19:40:44.131Z,71.70
2024-03-09T19:43:12.188Z,72.70
2024-03-09T19:45:40.888Z,72.00
2024-03-09T19:48:12.311Z,72.20
2024-03-09T19:50:40.790Z,72.40
2024-03-09T19:53:11.429Z,72.60
2024-03-09T19:55:40.498Z,72.80
2024-03-09T19:58:10.721Z,72.90
2024-03-09T20:00:39.134Z,73.00
2024-03-09T20:03:08.404Z,73.20
2024-03-09T20:05:36.476Z,73.40
2024-03-09T20:08:05.138Z,73.50
2024-03-09T20:10:36.902Z,73.50
2024-03-09T20:13:05.368Z,73.60
2024-03-09T20:15:34.894Z,73.60
2024-03-09T20:18:03.919Z,73.90
2024-03-09T20:20:33.340Z,74.00
2024-03-09T20:23:03.490Z,74.30
2024-03-09T20:25:32.888Z,74.50
2024-03-09T20:28:06.780Z,74.70
2024-03-09T20:30:36.494Z,74.90
2024-03-09T20:33:06.125Z,75.00
2024-03-09T20:35:34.177Z,75.20
2024-03-09T20:38:02.635Z,76.10
2024-03-09T20:40:31.240Z,75.70
2024-03-09T20:42:59.136Z,75.90
2024-03-09T20:45:28.710Z,76.10
2024-03-09T20:47:58.196Z,76.20
2024-03-09T20:50:27.064Z,76.20
2024-03-09T20:53:00.029Z,76.40
2024-03-09T20:55:29.538Z,76.60
2024-03-09T20:57:57.683Z,76.70
2024-03-09T21:00:27.756Z,76.90
2024-03-09T21:02:56.985Z,77.20
2024-03-09T21:05:25.107Z,77.40
2024-03-09T21:07:53.132Z,77.60
2024-03-09T21:10:22.814Z,77.80
2024-03-09T21:12:51.164Z,78.00
2024-03-09T21:15:20.191Z,78.30
2024-03-09T21:17:49.189Z,78.60
2024-03-09T21:20:19.529Z,78.80
2024-03-09T21:22:49.808Z,79.00
2024-03-09T21:25:18.264Z,79.30
2024-03-09T21:27:46.176Z,79.70
2024-03-09T21:30:16.543Z,80.10
2024-03-09T21:32:48.444Z,80.50
2024-03-09T21:35:21.555Z,81.10
2024-03-09T21:37:53.299Z,81.40
2024-03-09T21:40:22.362Z,81.60
2024-03-09T21:42:52.056Z,81.80
2024-03-09T21:45:20.151Z,82.00
2024-03-09T21:47:49.300Z,82.20
2024-03-09T21:50:23.921Z,82.70
2024-03-09T21:52:53.260Z,82.80
2024-03-09T21:55:21.399Z,83.40
2024-03-09T21:57:49.272Z,83.90
2024-03-09T22:00:22.720Z,84.10
2024-03-09T22:02:54.355Z,84.20
2024-03-09T22:05:26.576Z,84.30
2024-03-09T22:07:55.078Z,84.40
2024-03-09T22:10:23.345Z,84.80
2024-03-09T22:12:54.403Z,84.80
2024-03-09T22:15:22.732Z,85.00
2024-03-09T22:17:50.689Z,85.20
2024-03-09T22:20:19.184Z,85.40
2024-03-09T22:22:49.095Z,85.70
2024-03-09T22:25:20.076Z,85.80
2024-03-09T22:27:48.586Z,86.20
2024-03-09T22:30:19.555Z,86.50
2024-03-09T22:32:48.691Z,86.70
2024-03-09T22:35:17.749Z,86.80
2024-03-09T22:37:48.175Z,86.90
2024-03-09T22:40:18.518Z,87.60
2024-03-09T22:42:47.407Z,86.80
2024-03-09T22:45:17.105Z,86.80
2024-03-09T22:47:46.552Z,86.90
2024-03-09T22:50:16.066Z,87.10
2024-03-09T22:52:44.381Z,87.40
2024-03-09T22:55:14.741Z,87.70
2024-03-09T22:57:43.483Z,88.40
2024-03-09T23:00:35.602Z,88.90
2024-03-09T23:03:03.753Z,89.40
2024-03-09T23:05:32.718Z,90.30
2024-03-09T23:08:00.901Z,90.10
2024-03-09T23:10:30.424Z,90.20
2024-03-09T23:12:58.559Z,90.30
2024-03-09T23:15:27.357Z,90.30
2024-03-09T23:17:56.151Z,90.40
2024-03-09T23:20:27.904Z,90.30
2024-03-09T23:22:58.433Z,90.30
2024-03-09T23:25:27.071Z,90.30
2024-03-09T23:27:56.541Z,90.40
2024-03-09T23:30:25.660Z,90.60
2024-03-09T23:32:55.655Z,90.70
2024-03-09T23:35:24.623Z,90.80
2024-03-09T23:37:52.958Z,90.80
2024-03-09T23:40:21.695Z,91.00
2024-03-09T23:42:50.010Z,91.10
2024-03-09T23:45:20.450Z,91.30
2024-03-09T23:47:49.792Z,91.50
2024-03-09T23:50:21.062Z,91.70
2024-03-09T23:52:50.035Z,91.80
2024-03-09T23:55:19.495Z,92.00
2024-03-09T23:57:48.331Z,92.20
